Time;durP1;ratioP1;P1;durP2;ratioP2;P2;SDS_P1;SDS_P2;PMS_P1;PMS_P2;Temp;Humidity;BMP_temperature;BMP_pressure;BME280_temperature;BME280_humidity;BME280_pressure;Samples;Min_cycle;Max_cycle;Signal;HPM_P1;HPM_P2
2023/05/01 00:00:04;;;;;;;5.90;3.42;;;27.20;99.90;;;;;;5019637;28;20037;-46
2023/05/01 00:02:30;;;;;;;4.82;3.35;;;27.20;99.90;;;;;;5031323;28;20378;-47
2023/05/01 00:04:56;;;;;;;5.72;3.95;;;27.20;99.90;;;;;;5032210;28;20087;-47
2023/05/01 00:07:24;;;;;;;7.90;4.10;;;27.20;99.90;;;;;;5032162;28;20028;-47
2023/05/01 00:09:50;;;;;;;8.07;4.57;;;27.20;99.90;;;;;;5032180;28;20061;-46
2023/05/01 00:12:17;;;;;;;5.63;3.60;;;27.20;99.90;;;;;;5031955;28;20070;-47
2023/05/01 00:14:42;;;;;;;5.03;3.40;;;27.20;99.90;;;;;;5032605;28;20029;-47
2023/05/01 00:17:08;;;;;;;6.03;4.20;;;27.20;99.90;;;;;;5032332;28;20489;-48
2023/05/01 00:19:34;;;;;;;6.47;3.95;;;27.20;99.90;;;;;;5031648;28;20031;-47
2023/05/01 00:22:00;;;;;;;6.13;3.63;;;27.20;99.90;;;;;;5032046;28;20025;-48
2023/05/01 00:24:26;;;;;;;7.35;3.72;;;27.20;99.90;;;;;;5031966;28;20382;-46
2023/05/01 00:26:52;;;;;;;6.70;3.63;;;27.20;99.90;;;;;;5032047;28;20021;-45
2023/05/01 00:29:18;;;;;;;6.28;3.92;;;27.10;99.90;;;;;;5031885;28;20428;-47
2023/05/01 00:31:44;;;;;;;4.60;3.35;;;27.20;99.90;;;;;;5031764;28;20112;-47
2023/05/01 00:34:13;;;;;;;5.50;3.47;;;27.20;99.90;;;;;;5032060;28;20025;-48
2023/05/01 00:36:39;;;;;;;6.90;4.20;;;27.20;99.90;;;;;;5031038;28;20079;-47
2023/05/01 00:39:07;;;;;;;6.03;3.65;;;27.20;99.90;;;;;;5031937;28;20053;-47
2023/05/01 00:41:34;;;;;;;6.25;3.88;;;27.20;99.90;;;;;;5031979;28;20021;-46
2023/05/01 00:43:59;;;;;;;6.55;3.67;;;27.10;99.90;;;;;;5031589;28;20056;-46
2023/05/01 00:46:27;;;;;;;4.28;3.28;;;27.10;99.90;;;;;;5032069;28;20457;-48
2023/05/01 00:48:53;;;;;;;5.82;3.30;;;27.20;99.90;;;;;;5031543;28;20029;-47
2023/05/01 00:51:20;;;;;;;5.97;3.67;;;27.10;99.90;;;;;;5031571;28;20487;-47
2023/05/01 00:53:46;;;;;;;4.93;3.30;;;27.10;99.90;;;;;;5031681;28;20025;-48
2023/05/01 00:56:12;;;;;;;5.22;3.47;;;27.10;99.90;;;;;;5031899;28;20517;-46
2023/05/01 00:58:38;;;;;;;6.55;3.72;;;27.10;99.90;;;;;;5030387;28;20163;-47
2023/05/01 01:01:04;;;;;;;6.68;4.00;;;27.10;99.90;;;;;;5032083;28;20045;-47
2023/05/01 01:03:30;;;;;;;5.50;4.20;;;27.10;99.90;;;;;;5031644;28;20097;-46
2023/05/01 01:11:33;;;;;;;6.20;4.10;;;27.10;99.90;;;;;;5340036;23;20075;-46
2023/05/01 01:14:12;;;;;;;4.97;3.00;;;27.10;99.90;;;;;;4949983;28;20023;-46
2023/05/01 01:16:51;;;;;;;6.07;3.78;;;27.10;99.90;;;;;;4972674;28;20100;-46
2023/05/01 01:19:48;;;;;;;7.85;4.28;;;27.10;99.90;;;;;;4972830;28;20085;-47
2023/05/01 01:22:19;;;;;;;6.68;4.00;;;27.10;99.90;;;;;;4972721;28;20135;-46
2023/05/01 01:25:07;;;;;;;7.68;4.43;;;27.10;99.90;;;;;;4972526;28;20034;-46
2023/05/01 01:28:04;;;;;;;4.55;3.83;;;27.10;99.90;;;;;;4937550;28;20027;-45
2023/05/01 01:30:33;;;;;;;;;;;27.10;99.90;;;;;;4955607;28;20388;-46
2023/05/01 01:33:36;;;;;;;6.78;3.92;;;27.10;99.90;;;;;;4973137;28;20295;-46
2023/05/01 01:36:07;;;;;;;7.38;4.05;;;27.00;99.90;;;;;;4972645;28;20023;-46
2023/05/01 01:38:57;;;;;;;5.93;4.10;;;27.00;99.90;;;;;;4972518;28;20381;-46
2023/05/01 01:41:32;;;;;;;6.13;3.95;;;27.00;99.90;;;;;;4949170;28;20113;-46
2023/05/01 01:44:33;;;;;;;6.55;3.72;;;27.00;99.90;;;;;;4972723;28;20374;-46
2023/05/01 01:47:02;;;;;;;7.22;4.13;;;27.00;99.90;;;;;;4963171;28;20033;-46
2023/05/01 01:49:30;;;;;;;4.90;3.70;;;27.00;99.90;;;;;;4973463;28;20038;-46
2023/05/01 01:51:57;;;;;;;6.40;3.80;;;27.00;99.90;;;;;;4976375;28;20050;-46
2023/05/01 01:54:31;;;;;;;5.82;4.15;;;27.00;99.90;;;;;;4975773;28;20358;-46
2023/05/01 01:57:00;;;;;;;6.63;4.10;;;27.00;99.90;;;;;;4976086;28;20110;-47
2023/05/01 01:59:31;;;;;;;5.85;3.70;;;27.00;99.90;;;;;;4975580;28;20477;-46
2023/05/01 02:01:57;;;;;;;6.20;3.70;;;27.00;99.90;;;;;;4976030;28;20384;-46
2023/05/01 02:04:26;;;;;;;7.28;4.10;;;27.00;99.90;;;;;;4975820;28;20392;-46
2023/05/01 02:06:57;;;;;;;5.55;3.53;;;27.00;99.90;;;;;;4975767;28;20019;-47
2023/05/01 02:09:25;;;;;;;6.05;3.85;;;27.00;99.90;;;;;;4989806;28;20077;-46
2023/05/01 02:11:54;;;;;;;5.68;3.28;;;27.00;99.90;;;;;;4976469;28;20031;-47
2023/05/01 02:14:21;;;;;;;7.43;3.60;;;27.00;99.90;;;;;;4975035;28;20067;-46
2023/05/01 02:16:48;;;;;;;6.00;3.30;;;27.00;99.90;;;;;;4975572;28;20023;-47
2023/05/01 02:19:15;;;;;;;6.70;4.13;;;27.00;99.90;;;;;;4975191;28;20081;-46
2023/05/01 02:21:43;;;;;;;5.82;3.35;;;27.00;99.90;;;;;;4974587;28;20022;-47
2023/05/01 02:24:11;;;;;;;6.82;3.60;;;27.00;99.90;;;;;;4975244;28;20508;-47
2023/05/01 02:26:45;;;;;;;6.78;3.70;;;27.00;99.90;;;;;;4989860;28;20549;-47
2023/05/01 02:29:10;;;;;;;5.40;3.60;;;27.00;99.90;;;;;;4975229;28;20524;-47
2023/05/01 02:31:36;;;;;;;6.60;3.80;;;27.00;99.90;;;;;;4962171;28;20106;-46
2023/05/01 02:34:02;;;;;;;6.45;4.03;;;27.00;99.90;;;;;;4975259;28;20114;-47
2023/05/01 02:36:28;;;;;;;6.10;3.80;;;27.00;99.90;;;;;;4974240;28;20023;-46
2023/05/01 02:38:54;;;;;;;7.88;3.65;;;27.00;99.90;;;;;;4962835;28;20462;-47
2023/05/01 02:41:21;;;;;;;7.60;3.63;;;27.00;99.90;;;;;;4974714;28;20026;-46
2023/05/01 02:43:53;;;;;;;6.10;3.88;;;27.00;99.90;;;;;;4975136;28;20067;-47
2023/05/01 02:46:20;;;;;;;7.97;4.53;;;27.00;99.90;;;;;;4974676;28;20054;-47
2023/05/01 02:48:48;;;;;;;8.02;4.35;;;26.90;99.90;;;;;;4974430;28;20023;-47
2023/05/01 02:51:14;;;;;;;5.72;3.75;;;26.90;99.90;;;;;;4974933;28;20035;-46
2023/05/01 02:53:41;;;;;;;8.88;4.20;;;27.00;99.90;;;;;;4974494;28;20031;-47
2023/05/01 02:56:07;;;;;;;8.30;4.57;;;26.90;99.90;;;;;;4974563;28;20023;-46
2023/05/01 02:58:33;;;;;;;7.90;3.97;;;27.00;99.90;;;;;;4960954;28;20015;-47
2023/05/01 03:00:59;;;;;;;6.13;4.25;;;26.90;99.90;;;;;;4974602;28;20524;-46
2023/05/01 03:03:26;;;;;;;6.63;4.13;;;26.90;99.90;;;;;;4974098;28;20106;-47
2023/05/01 03:05:52;;;;;;;5.38;3.58;;;26.90;99.90;;;;;;4973567;28;20045;-47
2023/05/01 03:08:18;;;;;;;7.07;4.13;;;26.90;99.90;;;;;;4974143;28;20547;-47
2023/05/01 03:10:44;;;;;;;6.43;3.78;;;26.90;99.90;;;;;;4967209;28;20047;-46
2023/05/01 03:13:10;;;;;;;6.28;3.80;;;26.90;99.90;;;;;;4969921;28;20050;-46
2023/05/01 03:15:37;;;;;;;7.30;3.97;;;26.90;99.90;;;;;;4974604;28;20476;-47
2023/05/01 03:18:03;;;;;;;7.13;4.28;;;26.90;99.90;;;;;;4974495;28;20098;-47
2023/05/01 03:20:29;;;;;;;9.70;4.20;;;26.90;99.90;;;;;;4974374;28;20019;-47
2023/05/01 03:22:56;;;;;;;7.32;4.15;;;26.90;99.90;;;;;;4974064;28;20034;-47
2023/05/01 03:25:22;;;;;;;7.88;4.25;;;26.90;99.90;;;;;;4972526;28;20019;-47
2023/05/01 03:27:48;;;;;;;5.72;3.80;;;26.90;99.90;;;;;;4973936;28;20381;-48
2023/05/01 03:30:14;;;;;;;8.93;4.28;;;26.80;99.90;;;;;;4970924;28;20031;-47
2023/05/01 03:32:40;;;;;;;5.70;3.90;;;26.90;99.90;;;;;;4964341;28;20033;-48
2023/05/01 03:35:07;;;;;;;7.57;3.85;;;26.90;99.90;;;;;;4973947;28;20109;-47
2023/05/01 03:37:32;;;;;;;7.47;4.13;;;26.90;99.90;;;;;;4974455;28;20126;-47
2023/05/01 03:39:59;;;;;;;6.95;4.28;;;26.80;99.90;;;;;;4973427;28;20380;-47
2023/05/01 03:42:25;;;;;;;10.25;4.40;;;26.80;99.90;;;;;;4974236;28;20376;-48
2023/05/01 03:44:51;;;;;;;8.18;4.47;;;26.80;99.90;;;;;;4973791;28;20031;-47
2023/05/01 03:47:18;;;;;;;7.63;4.40;;;26.80;99.90;;;;;;4973418;28;20157;-47
2023/05/01 03:49:44;;;;;;;6.73;4.47;;;26.80;99.90;;;;;;4973876;28;20034;-48
2023/05/01 03:52:13;;;;;;;6.53;4.00;;;26.80;99.90;;;;;;4973275;28;20260;-48
2023/05/01 03:54:39;;;;;;;6.43;3.55;;;26.80;99.90;;;;;;4973805;28;20416;-48
2023/05/01 03:57:05;;;;;;;7.60;4.78;;;26.80;99.90;;;;;;4969655;28;20078;-48
2023/05/01 03:59:31;;;;;;;6.43;4.13;;;26.80;99.90;;;;;;4965518;28;20023;-48
2023/05/01 04:01:57;;;;;;;8.35;4.63;;;26.80;99.90;;;;;;4974044;28;20023;-48
2023/05/01 04:04:23;;;;;;;7.15;4.07;;;26.80;99.90;;;;;;4973569;28;20027;-45
2023/05/01 04:06:48;;;;;;;5.38;3.65;;;26.80;99.90;;;;;;4973086;28;20114;-46
2023/05/01 04:09:15;;;;;;;6.97;4.50;;;26.80;99.90;;;;;;4973255;28;20070;-47
2023/05/01 04:11:40;;;;;;;7.82;4.60;;;26.80;99.90;;;;;;4972994;28;20054;-45
2023/05/01 04:14:06;;;;;;;6.72;4.35;;;26.80;99.90;;;;;;4973466;28;20385;-45
2023/05/01 04:16:32;;;;;;;8.68;4.43;;;26.80;99.90;;;;;;4973381;28;20031;-47
2023/05/01 04:18:58;;;;;;;7.60;4.85;;;26.80;99.90;;;;;;4973031;28;20073;-46
2023/05/01 04:21:24;;;;;;;9.10;4.07;;;26.70;99.90;;;;;;4973277;28;20408;-48
2023/05/01 04:23:49;;;;;;;6.25;4.25;;;26.80;99.90;;;;;;4968299;28;20474;-46
2023/05/01 04:26:16;;;;;;;6.07;4.10;;;26.70;99.90;;;;;;4965350;28;20030;-47
2023/05/01 04:28:41;;;;;;;7.53;4.47;;;26.70;99.90;;;;;;4972885;28;20027;-47
2023/05/01 04:31:07;;;;;;;6.03;4.20;;;26.70;99.90;;;;;;4973166;28;20396;-46
2023/05/01 04:33:34;;;;;;;7.10;4.20;;;26.70;99.90;;;;;;4973171;28;20019;-46
2023/05/01 04:35:59;;;;;;;9.13;5.18;;;26.70;99.90;;;;;;4972939;28;20027;-47
2023/05/01 04:38:25;;;;;;;8.57;4.78;;;26.70;99.90;;;;;;4960227;28;20027;-47
2023/05/01 04:40:51;;;;;;;6.70;4.25;;;26.70;99.90;;;;;;4973029;28;20432;-47
2023/05/01 04:43:17;;;;;;;10.02;5.00;;;26.70;99.90;;;;;;4973083;28;20035;-46
2023/05/01 04:45:43;;;;;;;7.70;4.47;;;26.70;99.90;;;;;;4972987;28;20050;-45
2023/05/01 04:48:08;;;;;;;10.95;5.32;;;26.70;99.90;;;;;;4972487;28;20019;-47
2023/05/01 04:50:34;;;;;;;7.88;4.25;;;26.70;99.90;;;;;;4973499;28;20488;-46
2023/05/01 04:53:00;;;;;;;10.05;5.75;;;26.70;99.90;;;;;;4973041;28;20053;-47
2023/05/01 04:55:26;;;;;;;7.57;4.53;;;26.70;99.90;;;;;;4973096;28;20026;-46
2023/05/01 04:57:51;;;;;;;9.32;5.05;;;26.70;99.90;;;;;;4971892;28;20015;-47
2023/05/01 05:00:18;;;;;;;10.80;5.18;;;26.70;99.90;;;;;;4972698;28;20146;-47
2023/05/01 05:02:45;;;;;;;6.75;4.85;;;26.60;99.90;;;;;;4972731;28;20027;-47
2023/05/01 05:05:11;;;;;;;7.32;5.03;;;26.60;99.90;;;;;;4960019;28;20026;-47
2023/05/01 05:07:37;;;;;;;9.85;5.15;;;26.60;99.90;;;;;;4973009;28;20484;-46
2023/05/01 05:10:03;;;;;;;7.68;4.93;;;26.60;99.90;;;;;;4972254;28;20042;-46
2023/05/01 05:12:28;;;;;;;8.15;5.07;;;26.60;99.90;;;;;;4971564;28;20043;-46
2023/05/01 05:14:54;;;;;;;8.00;4.85;;;26.60;99.90;;;;;;4971724;28;20070;-46
2023/05/01 05:17:20;;;;;;;7.57;4.63;;;26.60;99.90;;;;;;4972487;28;20101;-46
2023/05/01 05:19:46;;;;;;;6.60;4.53;;;26.60;99.90;;;;;;4972604;28;20024;-47
2023/05/01 05:22:11;;;;;;;7.63;5.13;;;26.60;99.90;;;;;;4973591;28;20033;-47
2023/05/01 05:24:38;;;;;;;10.55;5.35;;;26.60;99.90;;;;;;4976375;28;20034;-47
2023/05/01 05:27:05;;;;;;;11.18;6.25;;;26.60;99.90;;;;;;4976146;28;20026;-47
2023/05/01 05:29:31;;;;;;;8.45;6.13;;;26.60;99.90;;;;;;4957467;28;20362;-47
2023/05/01 05:31:58;;;;;;;10.82;5.95;;;26.60;99.90;;;;;;4967422;28;20047;-47
2023/05/01 05:34:24;;;;;;;9.97;5.53;;;26.60;99.90;;;;;;4975644;28;20023;-47
2023/05/01 05:36:50;;;;;;;10.43;5.57;;;26.60;99.90;;;;;;4976284;28;20046;-48
2023/05/01 05:39:16;;;;;;;10.02;4.88;;;26.50;99.90;;;;;;4975969;28;20029;-48
2023/05/01 05:41:42;;;;;;;11.60;5.43;;;26.50;99.90;;;;;;4975983;28;20477;-48
2023/05/01 05:44:08;;;;;;;14.27;5.60;;;26.60;99.90;;;;;;4963610;28;20151;-48
2023/05/01 05:46:34;;;;;;;10.68;5.13;;;26.50;99.90;;;;;;4975524;28;20393;-47
2023/05/01 05:48:59;;;;;;;9.90;5.40;;;26.50;99.90;;;;;;4974605;28;20404;-48
2023/05/01 05:51:25;;;;;;;11.00;5.10;;;26.50;99.90;;;;;;4974618;28;20388;-47
2023/05/01 05:53:51;;;;;;;10.63;4.47;;;26.50;99.90;;;;;;4975611;28;20023;-47
2023/05/01 05:56:16;;;;;;;9.10;4.47;;;26.50;99.90;;;;;;4975779;28;20022;-47
2023/05/01 05:58:42;;;;;;;8.60;4.38;;;26.50;99.90;;;;;;4975973;28;20114;-47
2023/05/01 06:01:08;;;;;;;8.57;4.53;;;26.50;99.90;;;;;;4975192;28;20101;-47
2023/05/01 06:03:35;;;;;;;9.38;4.20;;;26.50;99.90;;;;;;4975914;28;20494;-47
2023/05/01 06:06:02;;;;;;;11.82;4.60;;;26.50;99.90;;;;;;4975291;28;20118;-48
2023/05/01 06:08:29;;;;;;;12.80;4.47;;;26.50;99.90;;;;;;4968533;28;20141;-47
2023/05/01 06:10:55;;;;;;;12.55;4.45;;;26.50;99.90;;;;;;4969670;28;20089;-47
2023/05/01 06:13:21;;;;;;;9.38;4.28;;;26.50;99.90;;;;;;4975719;28;20023;-48
2023/05/01 06:15:47;;;;;;;7.55;4.43;;;26.50;99.90;;;;;;4973725;28;20089;-47
2023/05/01 06:18:12;;;;;;;10.48;4.30;;;26.40;99.90;;;;;;4957924;28;20474;-47
2023/05/01 06:20:38;;;;;;;6.47;3.80;;;26.50;99.90;;;;;;4975519;28;20023;-47
2023/05/01 06:23:04;;;;;;;9.48;5.30;;;26.50;99.90;;;;;;4975253;28;20034;-47
2023/05/01 06:25:30;;;;;;;10.00;4.68;;;26.50;99.90;;;;;;4973861;28;20031;-48
2023/05/01 06:27:56;;;;;;;8.75;4.20;;;26.50;99.90;;;;;;4975260;28;20023;-47
2023/05/01 06:30:21;;;;;;;9.88;4.68;;;26.50;99.90;;;;;;4975001;28;20027;-47
2023/05/01 06:32:47;;;;;;;8.40;4.22;;;26.40;99.90;;;;;;4974848;28;20385;-47
2023/05/01 06:35:13;;;;;;;10.40;4.70;;;26.50;99.90;;;;;;4973955;28;20019;-47
2023/05/01 06:37:39;;;;;;;6.75;3.55;;;26.50;99.90;;;;;;4974963;28;20539;-48
2023/05/01 06:40:09;;;;;;;7.70;4.05;;;26.50;99.90;;;;;;4974912;28;20072;-48
2023/05/01 06:42:36;;;;;;;8.65;3.78;;;26.50;99.90;;;;;;4973784;28;20035;-48
2023/05/01 06:45:02;;;;;;;9.73;3.72;;;26.50;99.90;;;;;;4974846;28;20026;-47
2023/05/01 06:47:28;;;;;;;11.30;4.20;;;26.50;99.90;;;;;;4965626;28;20027;-48
2023/05/01 06:49:54;;;;;;;8.52;4.20;;;26.50;99.90;;;;;;4969616;28;20038;-48
2023/05/01 06:52:20;;;;;;;6.45;4.10;;;26.50;99.90;;;;;;4975096;28;20015;-47
2023/05/01 06:54:46;;;;;;;7.38;4.00;;;26.50;99.90;;;;;;4961622;28;20026;-47
2023/05/01 06:57:11;;;;;;;9.40;3.95;;;26.50;99.90;;;;;;4974925;28;20106;-47
2023/05/01 06:59:37;;;;;;;8.65;3.78;;;26.50;99.90;;;;;;4974815;28;20117;-47
2023/05/01 07:02:03;;;;;;;7.38;4.53;;;26.50;99.90;;;;;;4960086;28;20150;-47
2023/05/01 07:04:30;;;;;;;8.88;4.70;;;26.50;99.90;;;;;;4974810;28;20023;-47
2023/05/01 07:06:56;;;;;;;8.25;4.05;;;26.50;99.90;;;;;;4974627;28;20106;-47
2023/05/01 07:09:22;;;;;;;8.10;3.72;;;26.50;99.90;;;;;;4974386;28;20161;-47
2023/05/01 07:11:48;;;;;;;8.75;4.22;;;26.50;99.90;;;;;;4974134;28;20113;-47
2023/05/01 07:14:14;;;;;;;8.65;3.85;;;26.60;99.90;;;;;;4966133;28;20038;-47
2023/05/01 07:16:40;;;;;;;5.22;3.25;;;26.50;99.90;;;;;;4970170;28;20026;-47
2023/05/01 07:19:06;;;;;;;6.63;3.53;;;26.50;99.90;;;;;;4974422;28;20062;-47
2023/05/01 07:21:31;;;;;;;8.73;4.38;;;26.50;99.90;;;;;;4973994;28;20065;-47
2023/05/01 07:23:57;;;;;;;5.35;3.47;;;26.50;99.90;;;;;;4974081;28;20019;-47
2023/05/01 07:26:25;;;;;;;8.38;4.03;;;26.50;99.90;;;;;;4973930;28;20030;-47
2023/05/01 07:28:51;;;;;;;7.20;4.00;;;26.50;99.90;;;;;;4973637;28;20050;-47
2023/05/01 07:31:17;;;;;;;5.97;3.15;;;26.60;99.90;;;;;;4973931;28;20019;-48
2023/05/01 07:33:43;;;;;;;6.80;3.45;;;26.60;99.90;;;;;;4969942;28;20023;-48
2023/05/01 07:36:09;;;;;;;6.72;3.35;;;26.60;99.90;;;;;;4965556;28;20539;-47
2023/05/01 07:38:35;;;;;;;7.38;3.90;;;26.60;99.90;;;;;;4973484;28;20026;-47
2023/05/01 07:41:00;;;;;;;7.20;3.60;;;26.60;99.90;;;;;;4974062;28;20078;-47
2023/05/01 07:43:26;;;;;;;7.10;2.80;;;26.60;99.90;;;;;;4972627;28;20077;-47
2023/05/01 07:46:00;;;;;;;6.80;3.55;;;26.60;99.90;;;;;;4973394;28;20027;-47
2023/05/01 07:48:26;;;;;;;5.32;3.58;;;26.60;99.90;;;;;;4960859;28;20093;-47
2023/05/01 07:50:53;;;;;;;6.25;3.95;;;26.60;99.90;;;;;;4973973;28;20022;-47
2023/05/01 07:53:21;;;;;;;5.67;3.27;;;26.60;99.90;;;;;;4973269;28;20376;-47
2023/05/01 07:55:46;;;;;;;;;;;26.60;99.90;;;;;;4973817;28;20273;-47
2023/05/01 07:58:12;;;;;;;7.07;4.13;;;26.70;99.90;;;;;;4973527;28;19929;-47
2023/05/01 08:00:38;;;;;;;5.43;3.42;;;26.70;99.90;;;;;;4973468;28;20026;-48
2023/05/01 08:03:04;;;;;;;4.57;3.17;;;26.70;99.90;;;;;;4972333;28;20034;-47
2023/05/01 08:05:30;;;;;;;6.65;3.70;;;26.70;99.90;;;;;;4973074;28;20018;-48
2023/05/01 08:07:57;;;;;;;6.13;3.30;;;26.70;99.90;;;;;;4972355;28;20081;-48
2023/05/01 08:10:22;;;;;;;6.85;3.33;;;26.70;99.90;;;;;;4972778;28;20139;-48
2023/05/01 08:12:48;;;;;;;5.22;3.45;;;26.70;99.90;;;;;;4973136;28;20052;-48
2023/05/01 08:15:14;;;;;;;6.82;3.08;;;26.70;99.90;;;;;;4973424;28;20022;-48
2023/05/01 08:17:40;;;;;;;7.05;3.67;;;26.70;99.90;;;;;;4972946;28;20019;-48
2023/05/01 08:20:06;;;;;;;4.88;3.25;;;26.70;99.90;;;;;;4973350;28;20027;-48
2023/05/01 08:22:32;;;;;;;7.57;3.90;;;26.70;99.90;;;;;;4973441;28;20027;-48
2023/05/01 08:24:58;;;;;;;7.28;3.10;;;26.70;99.90;;;;;;4972850;28;20096;-48
2023/05/01 08:27:24;;;;;;;7.10;3.80;;;26.70;99.90;;;;;;4973442;28;20550;-48
2023/05/01 08:29:50;;;;;;;6.10;3.85;;;26.70;99.90;;;;;;4972891;28;20042;-47
2023/05/01 08:32:18;;;;;;;8.15;4.03;;;26.70;99.90;;;;;;4973321;28;20025;-47
2023/05/01 08:34:44;;;;;;;5.72;3.47;;;26.70;99.90;;;;;;4973395;28;20527;-48
2023/05/01 08:37:10;;;;;;;6.43;3.85;;;26.70;99.90;;;;;;4972467;28;20019;-47
2023/05/01 08:39:35;;;;;;;6.05;3.78;;;26.70;99.90;;;;;;4973033;28;20109;-47
2023/05/01 08:42:02;;;;;;;9.07;4.05;;;26.70;99.90;;;;;;4972692;28;20593;-48
2023/05/01 08:44:30;;;;;;;7.07;4.05;;;26.70;99.90;;;;;;4973163;28;20073;-48
2023/05/01 08:47:25;;;;;;;8.82;4.50;;;26.80;99.90;;;;;;4972722;28;20023;-48
2023/05/01 08:49:51;;;;;;;4.85;4.03;;;26.70;99.90;;;;;;4972566;28;20042;-47
2023/05/01 08:52:19;;;;;;;8.43;4.00;;;26.70;99.90;;;;;;4973266;28;20037;-47
2023/05/01 08:54:47;;;;;;;5.82;3.67;;;26.70;99.90;;;;;;4960937;28;20513;-47
2023/05/01 08:57:14;;;;;;;6.32;4.22;;;26.70;99.90;;;;;;4973153;28;20027;-47
2023/05/01 08:59:40;;;;;;;5.97;3.90;;;26.70;99.90;;;;;;4977166;28;20388;-48
2023/05/01 09:02:08;;;;;;;7.00;4.22;;;26.80;99.90;;;;;;4976789;28;20023;-48
2023/05/01 09:04:34;;;;;;;;;;;26.80;99.90;;;;;;4977329;28;20033;-48
2023/05/01 09:07:01;;;;;;;8.02;4.72;;;26.80;99.90;;;;;;4976772;28;20355;-47
2023/05/01 09:09:31;;;;;;;8.88;4.38;;;26.80;99.90;;;;;;4976656;28;20043;-48
2023/05/01 09:12:03;;;;;;;6.35;4.25;;;26.80;99.90;;;;;;4976457;28;20051;-47
2023/05/01 09:14:31;;;;;;;7.53;4.68;;;26.70;99.90;;;;;;4976736;28;20042;-47
2023/05/01 09:16:57;;;;;;;8.55;4.18;;;26.80;99.90;;;;;;4975723;28;20022;-48
2023/05/01 09:19:23;;;;;;;5.93;3.22;;;26.80;99.90;;;;;;4976775;28;20026;-48
2023/05/01 09:21:49;;;;;;;5.43;3.53;;;26.80;99.90;;;;;;4977203;28;20676;-48
2023/05/01 09:24:15;;;;;;;6.93;4.22;;;26.80;99.90;;;;;;4976070;28;20029;-48
2023/05/01 09:26:41;;;;;;;8.30;4.18;;;26.80;99.90;;;;;;4975544;28;20031;-47
2023/05/01 09:29:09;;;;;;;6.35;4.53;;;26.80;99.90;;;;;;4964347;28;20027;-47
2023/05/01 09:31:35;;;;;;;7.20;3.75;;;26.80;99.90;;;;;;4975834;28;20022;-47
2023/05/01 09:34:02;;;;;;;5.95;3.85;;;26.80;99.90;;;;;;4976399;28;20015;-47
2023/05/01 09:36:31;;;;;;;6.38;4.03;;;26.80;99.90;;;;;;4976210;28;20110;-47
2023/05/01 09:38:59;;;;;;;8.80;4.40;;;26.80;99.90;;;;;;4975981;28;20027;-47
2023/05/01 09:41:25;;;;;;;5.65;3.65;;;26.90;99.90;;;;;;4975606;28;20081;-47
2023/05/01 09:43:55;;;;;;;8.93;4.20;;;26.90;99.90;;;;;;4974855;28;20478;-47
2023/05/01 09:46:23;;;;;;;8.35;4.55;;;26.90;99.90;;;;;;4976083;28;20026;-48
2023/05/01 09:49:00;;;;;;;4.03;3.55;;;26.80;99.90;;;;;;4976142;28;20019;-47
2023/05/01 09:51:29;;;;;;;6.20;3.95;;;26.90;99.90;;;;;;4990961;28;20041;-47
2023/05/01 09:53:58;;;;;;;6.95;4.60;;;26.90;99.90;;;;;;4975338;28;20025;-47
2023/05/01 09:56:30;;;;;;;5.93;3.97;;;26.90;99.90;;;;;;4975872;28;20023;-48
2023/05/01 09:58:57;;;;;;;5.15;3.95;;;26.90;99.90;;;;;;4975579;28;20015;-47
2023/05/01 10:01:40;;;;;;;4.90;3.60;;;26.90;99.90;;;;;;4975621;28;20481;-47
2023/05/01 10:04:08;;;;;;;6.78;4.70;;;26.90;99.90;;;;;;4963267;28;20035;-47
2023/05/01 10:06:35;;;;;;;6.82;4.18;;;26.90;99.90;;;;;;4975415;28;20019;-47
2023/05/01 10:09:02;;;;;;;7.15;4.57;;;26.90;99.90;;;;;;4975192;28;20041;-47
2023/05/01 10:11:28;;;;;;;5.38;3.97;;;26.90;99.90;;;;;;4975247;28;20046;-47
2023/05/01 10:14:08;;;;;;;4.75;3.63;;;26.90;99.90;;;;;;4975301;28;20090;-47
2023/05/01 10:16:36;;;;;;;6.22;4.28;;;26.90;99.90;;;;;;4975444;28;20047;-47
2023/05/01 10:19:03;;;;;;;5.90;3.65;;;27.00;99.90;;;;;;4975288;28;20090;-46
2023/05/01 10:21:32;;;;;;;4.13;3.55;;;27.00;99.90;;;;;;4975078;28;20102;-46
2023/05/01 10:23:58;;;;;;;6.95;4.28;;;27.00;99.90;;;;;;4969875;28;20027;-46
2023/05/01 10:26:25;;;;;;;6.68;4.35;;;27.00;99.90;;;;;;4968169;28;20489;-46
2023/05/01 10:28:51;;;;;;;5.95;4.60;;;27.00;99.90;;;;;;4975304;28;20547;-47
2023/05/01 10:31:17;;;;;;;7.32;4.68;;;27.00;99.90;;;;;;4974627;28;20398;-47
2023/05/01 10:33:46;;;;;;;8.98;5.32;;;27.00;99.90;;;;;;4974945;28;20019;-47
2023/05/01 10:36:18;;;;;;;7.65;5.70;;;27.00;99.90;;;;;;4975387;28;20571;-46
2023/05/01 10:38:47;;;;;;;6.80;5.50;;;27.00;99.90;;;;;;4974331;28;20015;-47
2023/05/01 10:41:14;;;;;;;10.50;6.63;;;27.10;99.90;;;;;;4975230;28;20030;-47
2023/05/01 10:43:40;;;;;;;8.40;5.80;;;27.00;99.90;;;;;;4974643;28;20026;-47
2023/05/01 10:46:09;;;;;;;9.45;7.07;;;27.10;99.90;;;;;;4975026;28;20073;-47
2023/05/01 10:48:38;;;;;;;9.25;7.22;;;27.10;99.90;;;;;;4961880;28;20473;-47
2023/05/01 10:51:10;;;;;;;10.25;7.63;;;27.10;99.90;;;;;;4974706;28;20022;-47
2023/05/01 10:53:36;;;;;;;8.13;7.20;;;27.10;99.90;;;;;;4974443;28;20023;-52
2023/05/01 10:56:04;;;;;;;11.87;7.27;;;27.10;99.90;;;;;;4974628;28;20027;-47
2023/05/01 10:58:37;;;;;;;9.65;7.50;;;27.10;99.90;;;;;;4973980;28;20015;-47
2023/05/01 11:01:41;;;;;;;10.95;8.02;;;27.10;99.90;;;;;;4974593;28;20026;-48
2023/05/01 11:04:20;;;;;;;10.90;9.18;;;27.20;99.90;;;;;;4952297;28;20058;-48
2023/05/01 11:07:19;;;;;;;12.05;9.80;;;27.10;99.90;;;;;;4974006;28;20094;-47
2023/05/01 11:09:50;;;;;;;16.45;12.13;;;27.20;99.90;;;;;;4962933;28;20051;-47
2023/05/01 11:12:45;;;;;;;13.18;10.43;;;27.20;99.90;;;;;;4950075;28;20039;-47
2023/05/01 11:15:12;;;;;;;13.50;10.77;;;27.20;99.90;;;;;;4971680;28;20035;-47
2023/05/01 11:17:41;;;;;;;10.57;9.27;;;27.20;99.90;;;;;;4974219;28;20023;-48
2023/05/01 11:20:11;;;;;;;12.55;10.63;;;27.20;99.90;;;;;;4973851;28;20026;-46
2023/05/01 11:22:47;;;;;;;14.15;11.32;;;27.20;99.90;;;;;;4974292;28;20440;-46
2023/05/01 11:25:39;;;;;;;13.73;11.27;;;27.20;99.90;;;;;;4974044;28;20018;-46
2023/05/01 11:28:08;;;;;;;18.42;12.60;;;27.30;99.90;;;;;;4973145;28;20046;-49
2023/05/01 11:30:38;;;;;;;14.05;10.80;;;27.30;99.90;;;;;;4972542;28;20054;-47
2023/05/01 11:33:04;;;;;;;14.80;11.77;;;27.30;99.90;;;;;;4974313;28;20023;-50
2023/05/01 11:35:31;;;;;;;16.50;12.63;;;27.30;99.90;;;;;;4972606;28;20072;-48
2023/05/01 11:37:57;;;;;;;;;;;27.30;99.90;;;;;;4974408;28;20027;-47
2023/05/01 11:40:28;;;;;;;15.00;12.20;;;27.40;99.90;;;;;;4989228;28;19961;-48
2023/05/01 11:43:02;;;;;;;16.27;11.82;;;27.40;99.90;;;;;;4974245;28;20034;-48
2023/05/01 11:45:28;;;;;;;16.67;12.55;;;27.40;99.90;;;;;;4988798;28;20066;-48
2023/05/01 11:47:55;;;;;;;16.15;13.07;;;27.40;99.90;;;;;;4974295;28;20452;-48
2023/05/01 11:50:20;;;;;;;17.05;13.77;;;27.40;99.90;;;;;;4973795;28;20114;-47
2023/05/01 11:52:53;;;;;;;16.42;13.43;;;27.40;99.90;;;;;;4973673;28;20054;-47
2023/05/01 11:55:20;;;;;;;16.38;12.77;;;27.40;99.90;;;;;;4973634;28;20076;-47
2023/05/01 11:57:51;;;;;;;14.85;12.50;;;27.40;99.90;;;;;;4973881;28;20030;-47
2023/05/01 12:00:28;;;;;;;16.60;13.05;;;27.50;99.90;;;;;;4973461;28;20027;-47
2023/05/01 12:02:58;;;;;;;;;;;27.50;99.90;;;;;;4974126;28;20026;-48
2023/05/01 12:05:25;;;;;;;16.75;12.40;;;27.50;99.90;;;;;;4973524;28;19906;-47
2023/05/01 12:07:51;;;;;;;16.00;13.25;;;27.50;99.90;;;;;;4961774;28;20023;-47
2023/05/01 12:10:17;;;;;;;17.42;13.15;;;27.50;99.90;;;;;;4972210;28;20037;-46
2023/05/01 12:12:43;;;;;;;16.33;13.10;;;27.50;99.90;;;;;;4973431;28;20509;-47
2023/05/01 12:15:09;;;;;;;16.50;13.40;;;27.50;99.90;;;;;;4960458;28;20485;-47
2023/05/01 12:17:36;;;;;;;16.60;13.10;;;27.50;99.90;;;;;;4972952;28;20041;-47
2023/05/01 12:20:03;;;;;;;20.33;14.95;;;27.50;99.90;;;;;;4960565;28;20035;-48
2023/05/01 12:22:29;;;;;;;16.88;14.23;;;27.60;99.90;;;;;;4973805;28;20023;-47
2023/05/01 12:24:55;;;;;;;18.52;14.55;;;27.50;99.90;;;;;;4973188;28;20034;-47
2023/05/01 12:27:21;;;;;;;17.75;13.77;;;27.60;99.90;;;;;;4973090;28;20105;-47
2023/05/01 12:29:47;;;;;;;19.38;14.65;;;27.60;99.90;;;;;;4973166;28;20489;-47
2023/05/01 12:32:14;;;;;;;17.33;14.02;;;27.60;99.90;;;;;;4972959;28;20030;-47
2023/05/01 12:34:40;;;;;;;18.50;14.15;;;27.60;99.90;;;;;;4971649;28;20057;-47
2023/05/01 12:37:06;;;;;;;17.98;14.13;;;27.60;99.90;;;;;;4973175;28;20019;-47
2023/05/01 12:39:41;;;;;;;18.38;13.60;;;27.60;99.90;;;;;;4973103;28;20050;-47
2023/05/01 12:42:14;;;;;;;17.23;13.30;;;27.60;99.90;;;;;;4973207;28;20382;-47
2023/05/01 12:44:40;;;;;;;19.05;13.90;;;27.60;99.90;;;;;;4973279;28;20476;-47
2023/05/01 12:47:10;;;;;;;20.25;13.52;;;27.60;99.90;;;;;;4972787;28;20054;-47
2023/05/01 12:49:37;;;;;;;17.25;13.30;;;27.70;99.90;;;;;;4973316;28;20034;-47
2023/05/01 12:52:05;;;;;;;17.30;11.80;;;27.70;99.90;;;;;;4972933;28;20029;-47
2023/05/01 12:54:31;;;;;;;16.60;12.18;;;27.70;99.90;;;;;;4973170;28;20026;-47